Hauptseite
METAR-TAF:

METAR-TAF

Flughäfen :

Verkehrslandeplatz Hof-Plauen

Hof, Deutschland

Breite: 50-19N, Länge: 011-53E, Höhe: 567 m

Beobachtung

Neuester Wetterbericht von vor 19 Minuten, um 06:50 UTC
Wind 4 kt aus Nordost, variierte zwischen Nord und Ost
Temperatur 0°C
Luftfeuchtigkeit 100%
Luftdruck 1033 hPa
Sichtweite: 0100 m
Nebel

METAR: EDQM 010650Z 05004KT 360V090 0100 R08/0200N FG VV/// M00/M00 Q1033

Zeit: 08:09 (07:09 UTC)

Prognose

Neuester Wetterbericht von vor 1 Stunde und 4 Minuten, um 06:05 UTC
Gültige Prognose vom 01 um 07 UTC bis 01 um 15 UTC
Wind 4 kt aus Ost/Nordost
Sichtweite: 0100 m
Geschlossene Wolkendecke in der Höhe von 100 ft
Nebel
Übergehend zu
vom 01 um 07 UTC bis 01 um 09 UTC
Sichtweite: 7000 m
Aufgelockert bewölkt in der Höhe von 500 ft

TAF: EDQM 010605Z 0107/0115 07004KT 0100 FG OVC001 BECMG 0107/0109 7000 SCT005

Wetterbeobachtungen und Prognosen von mehr als 4000 Flughäfen (METAR und TAF Bericht).

Die verfügbaren Stationen werden durch gelbe und rote Markierungen auf der Karte dargestellt.

Führen Sie die Maus auf sie, um den Namen der Station zu sehen.

Darauf klicken, um die Beobachtung von Wetterbeobachtungen und Prognosen zu sehen.

Um die Karte zu ändern : klicken Sie auf den grünen Tasten mit einem schwarzen Kreuz Zum Vergrößern, auf den grünen Button mit einem Gedankenstrich zu verkleinern, oder auf die grünen Pfeile für benachbarte Karten.


METAR-TAF: